Time;durP1;ratioP1;P1;durP2;ratioP2;P2;SDS_P1;SDS_P2;PMS_P1;PMS_P2;Temp;Humidity;BMP_temperature;BMP_pressure;BME280_temperature;BME280_humidity;BME280_pressure;Samples;Min_cycle;Max_cycle;Signal;HPM_P1;HPM_P2
2021/03/13 00:00:20;;;;;;;41.42;26.90;;;6.50;99.90;;;;;;4973001;28;20042;-77
2021/03/13 00:02:47;;;;;;;40.63;27.40;;;7.00;99.90;;;;;;4955956;28;20523;-78
2021/03/13 00:05:29;;;;;;;49.38;28.20;;;7.00;99.90;;;;;;4973626;28;20035;-81
2021/03/13 00:07:55;;;;;;;38.50;25.40;;;6.90;99.90;;;;;;4973123;28;20074;-80
2021/03/13 00:10:22;;;;;;;39.72;26.35;;;7.00;99.90;;;;;;4973447;28;20030;-81
2021/03/13 00:12:48;;;;;;;41.92;27.33;;;7.20;99.90;;;;;;4973114;28;20358;-80
2021/03/13 00:15:15;;;;;;;53.90;29.33;;;7.30;99.90;;;;;;4973054;28;20035;-81
2021/03/13 00:17:46;;;;;;;66.63;34.95;;;7.40;99.90;;;;;;4973345;28;20026;-81
2021/03/13 00:20:14;;;;;;;51.67;34.25;;;7.20;99.90;;;;;;4973164;28;20027;-76
2021/03/13 00:22:40;;;;;;;66.43;37.28;;;7.20;99.90;;;;;;4973656;28;20030;-79
2021/03/13 00:25:08;;;;;;;52.70;33.10;;;7.30;99.90;;;;;;4973447;28;20102;-78
2021/03/13 00:27:46;;;;;;;58.58;35.53;;;7.20;99.90;;;;;;4973178;28;20038;-75
2021/03/13 00:30:21;;;;;;;72.97;38.13;;;7.30;99.90;;;;;;4973829;28;20449;-79
2021/03/13 00:32:50;;;;;;;74.18;41.78;;;7.40;99.90;;;;;;4955913;28;20098;-79
2021/03/13 00:35:17;;;;;;;61.42;35.53;;;7.20;99.90;;;;;;4969965;28;20030;-80
2021/03/13 00:37:43;;;;;;;54.00;34.65;;;7.00;99.90;;;;;;4953311;29;20027;-75
2021/03/13 00:40:13;;;;;;;52.95;34.20;;;7.10;99.90;;;;;;4954045;29;20042;-76
2021/03/13 00:42:40;;;;;;;61.67;38.00;;;7.10;99.90;;;;;;4951956;29;20042;-79
2021/03/13 00:45:08;;;;;;;69.78;38.22;;;7.20;99.90;;;;;;4962425;28;20054;-78
2021/03/13 00:47:34;;;;;;;64.57;36.45;;;7.10;99.90;;;;;;4971863;28;20055;-81
2021/03/13 00:50:00;;;;;;;69.55;39.00;;;7.00;99.90;;;;;;4973077;28;20034;-79
2021/03/13 00:52:26;;;;;;;67.38;39.65;;;6.80;99.90;;;;;;4971562;28;20038;-76
2021/03/13 00:54:52;;;;;;;69.85;38.45;;;6.50;99.90;;;;;;4973410;28;20022;-78
2021/03/13 00:57:18;;;;;;;81.88;46.00;;;6.70;99.90;;;;;;4972307;28;20381;-77
2021/03/13 00:59:44;;;;;;;334.63;171.55;;;7.20;99.90;;;;;;4972689;28;20046;-75
2021/03/13 01:02:10;;;;;;;225.40;129.90;;;7.40;99.90;;;;;;4972465;28;20050;-76
2021/03/13 01:04:35;;;;;;;72.18;43.10;;;7.50;99.90;;;;;;4972834;28;20019;-75
2021/03/13 01:07:01;;;;;;;59.47;37.75;;;7.30;99.90;;;;;;4973684;28;20035;-78
2021/03/13 01:09:27;;;;;;;57.20;35.35;;;6.50;99.90;;;;;;4975797;28;20046;-81
2021/03/13 01:11:54;;;;;;;52.83;33.70;;;5.90;99.90;;;;;;4976650;28;20019;-78
2021/03/13 01:14:20;;;;;;;55.88;31.77;;;5.80;99.90;;;;;;4977606;28;20038;-79
2021/03/13 01:16:46;;;;;;;40.22;26.05;;;5.60;99.90;;;;;;4976775;28;20039;-79
2021/03/13 01:19:13;;;;;;;43.28;27.42;;;5.50;99.90;;;;;;4976725;28;20488;-81
2021/03/13 01:21:39;;;;;;;33.00;21.65;;;5.40;99.90;;;;;;4959034;28;20572;-77
2021/03/13 01:24:05;;;;;;;33.10;22.42;;;5.40;99.90;;;;;;4976606;28;20110;-81
2021/03/13 01:26:31;;;;;;;34.10;22.35;;;5.60;99.90;;;;;;4976218;28;20023;-82
2021/03/13 01:28:56;;;;;;;35.88;23.08;;;6.00;99.90;;;;;;4958947;28;20048;-77
2021/03/13 01:31:22;;;;;;;35.65;22.45;;;6.40;99.90;;;;;;4976150;28;20041;-75
2021/03/13 01:33:48;;;;;;;31.88;22.25;;;6.70;99.90;;;;;;4976709;28;20026;-77
2021/03/13 01:36:14;;;;;;;34.78;21.92;;;6.90;99.90;;;;;;4976123;28;20157;-77
2021/03/13 01:38:39;;;;;;;33.72;21.95;;;7.00;99.90;;;;;;4976744;28;20031;-80
2021/03/13 01:41:05;;;;;;;34.22;20.83;;;7.10;99.90;;;;;;4976116;28;20034;-79
2021/03/13 01:43:31;;;;;;;35.60;21.73;;;7.10;99.90;;;;;;4959045;28;20034;-75
2021/03/13 01:45:57;;;;;;;30.85;20.75;;;7.00;99.90;;;;;;4976043;28;20051;-79
2021/03/13 01:48:30;;;;;;;29.48;20.10;;;7.00;99.90;;;;;;4958516;28;20034;-78
2021/03/13 01:50:56;;;;;;;32.88;20.15;;;7.10;99.90;;;;;;4957059;29;20023;-76
2021/03/13 01:53:22;;;;;;;33.78;21.85;;;7.10;99.90;;;;;;4956719;29;20027;-78
2021/03/13 01:55:48;;;;;;;36.65;23.67;;;7.10;99.90;;;;;;4956977;29;20098;-80
2021/03/13 01:58:13;;;;;;;39.17;23.88;;;7.10;99.90;;;;;;4956702;29;20126;-76
2021/03/13 02:00:39;;;;;;;43.67;26.30;;;6.80;99.90;;;;;;4956770;29;20039;-75
2021/03/13 02:03:05;;;;;;;44.78;26.52;;;6.80;99.90;;;;;;4956023;29;20086;-77
2021/03/13 02:05:40;;;;;;;46.67;29.48;;;6.80;99.90;;;;;;4955055;29;20035;-75
2021/03/13 02:08:19;;;;;;;56.90;32.85;;;6.80;99.90;;;;;;4956618;28;20023;-80
2021/03/13 02:10:53;;;;;;;55.67;32.63;;;6.80;99.90;;;;;;4955373;29;20456;-76
2021/03/13 02:13:26;;;;;;;52.00;33.13;;;6.80;99.90;;;;;;4956922;29;20023;-75
2021/03/13 02:16:34;;;;;;;56.40;34.05;;;6.60;99.90;;;;;;4956513;29;20094;-77
2021/03/13 02:19:15;;;;;;;57.05;34.42;;;6.30;99.90;;;;;;4955577;29;20035;-82
2021/03/13 02:22:08;;;;;;;52.47;33.25;;;6.60;99.90;;;;;;4955462;29;20057;-82
2021/03/13 02:24:58;;;;;;;55.67;32.95;;;6.80;99.90;;;;;;4953037;29;20039;-80
2021/03/13 02:28:10;;;;;;;57.00;32.80;;;6.80;99.90;;;;;;4956007;29;20481;-81
2021/03/13 02:30:38;;;;;;;55.53;32.28;;;6.80;99.90;;;;;;4952493;29;20058;-78
2021/03/13 02:33:16;;;;;;;54.80;33.60;;;6.60;99.90;;;;;;4956093;29;20031;-79
2021/03/13 02:35:44;;;;;;;53.72;33.40;;;6.60;99.90;;;;;;4968065;28;20452;-79
2021/03/13 02:38:17;;;;;;;50.55;32.95;;;6.50;99.90;;;;;;4974936;28;20031;-76
2021/03/13 02:40:46;;;;;;;47.97;30.70;;;6.60;99.90;;;;;;4974183;28;20034;-80
2021/03/13 02:43:14;;;;;;;59.95;33.83;;;6.50;99.90;;;;;;4974648;28;20110;-81
2021/03/13 02:45:53;;;;;;;54.55;32.58;;;6.60;99.90;;;;;;4975815;28;20393;-79
2021/03/13 02:48:21;;;;;;;58.03;32.72;;;6.60;99.90;;;;;;4974846;28;20057;-77
2021/03/13 02:50:49;;;;;;;51.63;32.30;;;6.40;99.90;;;;;;4975699;28;20026;-82
2021/03/13 02:53:16;;;;;;;62.28;33.17;;;6.50;99.90;;;;;;4975150;28;20026;-78
2021/03/13 02:55:43;;;;;;;54.08;31.35;;;6.10;99.90;;;;;;4975808;28;20801;-78
2021/03/13 02:58:10;;;;;;;50.85;31.77;;;6.20;99.90;;;;;;4975346;28;20031;-75
2021/03/13 03:00:41;;;;;;;54.83;31.48;;;6.40;99.90;;;;;;4975379;28;20034;-79
2021/03/13 03:03:09;;;;;;;49.03;29.20;;;6.60;99.90;;;;;;4974959;28;20027;-78
2021/03/13 03:05:36;;;;;;;51.50;29.33;;;6.30;99.90;;;;;;4975414;28;20081;-80
2021/03/13 03:08:05;;;;;;;44.20;28.73;;;5.90;99.90;;;;;;4975098;28;20392;-76
2021/03/13 03:10:35;;;;;;;50.03;29.88;;;5.90;99.90;;;;;;4975531;28;20019;-78
2021/03/13 03:13:03;;;;;;;57.22;30.80;;;6.40;99.90;;;;;;4973713;28;20108;-74
2021/03/13 03:15:31;;;;;;;54.30;31.17;;;6.60;99.90;;;;;;4974672;28;20042;-81
2021/03/13 03:18:00;;;;;;;50.67;33.72;;;6.70;99.90;;;;;;4974463;28;20041;-78
2021/03/13 03:20:29;;;;;;;56.65;32.35;;;6.60;99.90;;;;;;4975348;28;20373;-78
2021/03/13 03:22:56;;;;;;;53.28;32.22;;;6.70;99.90;;;;;;4974207;28;20113;-78
2021/03/13 03:25:22;;;;;;;51.50;30.58;;;6.90;99.90;;;;;;4974792;28;20019;-77
2021/03/13 03:27:53;;;;;;;54.08;32.53;;;7.00;99.90;;;;;;4974434;28;20034;-75
2021/03/13 03:30:22;;;;;;;49.30;30.05;;;6.90;99.90;;;;;;4974276;28;20389;-82
2021/03/13 03:32:48;;;;;;;50.55;30.58;;;6.80;99.90;;;;;;4974211;28;20078;-80
2021/03/13 03:35:15;;;;;;;50.22;30.52;;;6.80;99.90;;;;;;4968139;28;20036;-80
2021/03/13 03:37:41;;;;;;;48.97;30.75;;;6.80;99.90;;;;;;4955165;29;20024;-78
2021/03/13 03:40:08;;;;;;;50.88;31.25;;;6.70;99.90;;;;;;4955751;29;20744;-81
2021/03/13 03:42:37;;;;;;;49.75;32.00;;;6.80;99.90;;;;;;4955464;28;20045;-78
2021/03/13 03:45:05;;;;;;;54.90;33.15;;;6.90;99.90;;;;;;4955251;29;20067;-79
2021/03/13 03:47:31;;;;;;;56.90;31.83;;;6.90;99.90;;;;;;4955414;28;20039;-77
2021/03/13 03:49:57;;;;;;;42.88;27.70;;;6.80;99.90;;;;;;4954946;29;20389;-79
2021/03/13 03:52:24;;;;;;;44.88;25.77;;;6.80;99.90;;;;;;4953826;29;20031;-80
2021/03/13 03:54:52;;;;;;;35.75;22.52;;;6.70;99.90;;;;;;4954178;29;20027;-80
2021/03/13 03:57:18;;;;;;;29.92;21.63;;;6.00;99.90;;;;;;4953733;29;20039;-78
2021/03/13 03:59:46;;;;;;;36.95;21.52;;;5.70;99.90;;;;;;4954800;29;20023;-79
2021/03/13 04:02:13;;;;;;;32.58;21.42;;;6.10;99.90;;;;;;4954924;29;20058;-77
2021/03/13 04:04:40;;;;;;;36.80;23.08;;;6.40;99.90;;;;;;4953896;29;20545;-80
2021/03/13 04:07:07;;;;;;;44.92;25.17;;;6.60;99.90;;;;;;4955038;28;20491;-78
2021/03/13 04:09:34;;;;;;;32.38;20.75;;;6.70;99.90;;;;;;4954515;29;20027;-77
2021/03/13 04:12:04;;;;;;;33.20;21.25;;;6.80;99.90;;;;;;4955011;29;20031;-81
2021/03/13 04:14:32;;;;;;;31.33;19.88;;;6.90;99.90;;;;;;4954636;29;20019;-78
2021/03/13 04:16:58;;;;;;;31.52;20.00;;;6.80;99.90;;;;;;4954904;29;20035;-79
2021/03/13 04:19:26;;;;;;;30.23;20.40;;;6.90;99.90;;;;;;4954271;29;20031;-78
2021/03/13 04:21:52;;;;;;;30.60;20.00;;;6.90;99.90;;;;;;4954802;29;20038;-77
2021/03/13 04:24:18;;;;;;;26.73;19.52;;;7.00;99.90;;;;;;4953990;29;20432;-77
2021/03/13 04:26:45;;;;;;;31.17;17.17;;;6.90;99.90;;;;;;4954959;29;20034;-81
2021/03/13 04:29:12;;;;;;;26.10;17.85;;;6.80;99.90;;;;;;4954468;29;20023;-78
2021/03/13 04:31:38;;;;;;;28.40;18.98;;;6.80;99.90;;;;;;4954613;29;20059;-77
2021/03/13 04:34:05;;;;;;;37.42;23.23;;;6.80;99.90;;;;;;4954440;29;20035;-77
2021/03/13 04:36:32;;;;;;;34.05;23.98;;;6.70;99.90;;;;;;4969971;28;20433;-79
2021/03/13 04:39:01;;;;;;;41.55;26.63;;;6.80;99.90;;;;;;4972165;28;20038;-76
2021/03/13 04:41:27;;;;;;;39.50;24.88;;;6.80;99.90;;;;;;4973136;28;20034;-78
2021/03/13 04:43:54;;;;;;;43.55;26.83;;;6.70;99.90;;;;;;4972389;28;20027;-73
2021/03/13 04:46:21;;;;;;;42.40;25.90;;;6.70;99.90;;;;;;4973558;28;20038;-74
2021/03/13 04:48:47;;;;;;;44.08;26.90;;;6.60;99.90;;;;;;4973220;28;20019;-76
2021/03/13 04:51:17;;;;;;;43.53;26.52;;;6.60;99.90;;;;;;4973495;28;20495;-75
2021/03/13 04:53:44;;;;;;;41.17;27.38;;;6.50;99.90;;;;;;4973314;28;20034;-76
2021/03/13 04:56:10;;;;;;;40.53;25.20;;;6.60;99.90;;;;;;4973724;28;20131;-81
2021/03/13 04:58:36;;;;;;;41.42;25.13;;;6.60;99.90;;;;;;4973835;28;20026;-78
2021/03/13 05:01:02;;;;;;;47.67;25.95;;;6.70;99.90;;;;;;4973184;28;20385;-75
2021/03/13 05:03:28;;;;;;;39.47;24.70;;;6.40;99.90;;;;;;4972324;28;20027;-79
2021/03/13 05:05:54;;;;;;;44.83;24.80;;;6.50;99.90;;;;;;4973776;28;20030;-77
2021/03/13 05:08:20;;;;;;;35.70;23.92;;;6.60;99.90;;;;;;4973819;28;20165;-80
2021/03/13 05:10:45;;;;;;;34.35;21.77;;;6.70;99.90;;;;;;4973446;28;20098;-78
2021/03/13 05:13:11;;;;;;;33.60;20.10;;;6.70;99.90;;;;;;4973791;28;20039;-76
2021/03/13 05:15:37;;;;;;;26.23;18.17;;;6.70;99.90;;;;;;4973534;28;20035;-82
2021/03/13 05:18:03;;;;;;;26.42;18.17;;;6.50;99.90;;;;;;4973880;28;20085;-81
2021/03/13 05:20:29;;;;;;;27.50;16.95;;;6.50;99.90;;;;;;4955742;28;20035;-78
2021/03/13 05:22:55;;;;;;;29.17;16.73;;;6.40;99.90;;;;;;4972532;28;20038;-77
2021/03/13 05:25:21;;;;;;;28.52;17.70;;;6.50;99.90;;;;;;4955934;28;20105;-81
2021/03/13 05:27:47;;;;;;;25.85;16.55;;;6.70;99.90;;;;;;4973915;28;20473;-80
2021/03/13 05:30:13;;;;;;;27.95;16.58;;;6.80;99.90;;;;;;4973180;28;20054;-84
2021/03/13 05:32:40;;;;;;;27.88;16.95;;;6.80;99.90;;;;;;4973279;28;20529;-79
2021/03/13 05:35:09;;;;;;;23.92;16.52;;;6.10;99.90;;;;;;4969785;28;20016;-79
2021/03/13 05:37:35;;;;;;;29.40;17.20;;;6.10;99.90;;;;;;4953395;29;20031;-79
2021/03/13 05:40:02;;;;;;;24.90;16.98;;;6.40;99.90;;;;;;4953510;29;20438;-80
2021/03/13 05:42:30;;;;;;;25.63;17.10;;;6.50;99.90;;;;;;4954307;29;20110;-81
2021/03/13 05:44:57;;;;;;;28.27;17.52;;;6.60;99.90;;;;;;4953567;29;20054;-83
2021/03/13 05:47:23;;;;;;;26.23;17.25;;;6.70;99.90;;;;;;4953642;29;20086;-80
2021/03/13 05:50:05;;;;;;;23.88;17.00;;;6.80;99.90;;;;;;4953051;29;20031;-77
2021/03/13 05:52:32;;;;;;;28.45;16.90;;;6.90;99.90;;;;;;4954542;28;20039;-82
2021/03/13 05:54:59;;;;;;;25.40;17.42;;;7.00;99.90;;;;;;4956430;29;20019;-78
2021/03/13 05:57:25;;;;;;;27.55;17.98;;;7.00;99.90;;;;;;4956676;29;20467;-80
2021/03/13 05:59:51;;;;;;;29.10;19.70;;;7.00;99.90;;;;;;4956735;29;20497;-77
2021/03/13 06:02:20;;;;;;;39.28;24.33;;;7.10;99.90;;;;;;4956671;29;20440;-82
2021/03/13 06:04:47;;;;;;;46.58;27.90;;;7.10;99.90;;;;;;4956534;29;20549;-78
2021/03/13 06:07:25;;;;;;;48.53;29.83;;;7.10;99.90;;;;;;4956591;28;20027;-80
2021/03/13 06:09:53;;;;;;;61.45;30.40;;;7.10;99.90;;;;;;4956417;29;20026;-76
2021/03/13 06:12:20;;;;;;;50.15;30.48;;;7.10;99.90;;;;;;4956585;29;20055;-81
2021/03/13 06:14:47;;;;;;;48.05;27.70;;;7.20;99.90;;;;;;4957287;29;20027;-78
2021/03/13 06:17:13;;;;;;;44.80;26.60;;;7.10;99.90;;;;;;4956381;29;20389;-78
2021/03/13 06:19:56;;;;;;;41.45;25.63;;;7.20;99.90;;;;;;4956556;29;20027;-75
2021/03/13 06:22:32;;;;;;;41.05;25.92;;;7.00;99.90;;;;;;4955322;29;20042;-77
2021/03/13 06:25:19;;;;;;;47.08;27.02;;;7.10;99.90;;;;;;4956303;29;20023;-78
2021/03/13 06:27:48;;;;;;;44.20;24.48;;;7.10;99.90;;;;;;4955837;29;20054;-78
2021/03/13 06:30:14;;;;;;;32.95;23.25;;;6.90;99.90;;;;;;4955396;29;20186;-75
2021/03/13 06:32:41;;;;;;;39.58;24.88;;;6.60;99.90;;;;;;4955832;29;20532;-77
2021/03/13 06:35:27;;;;;;;41.95;24.35;;;6.80;99.90;;;;;;4957206;28;20030;-74
2021/03/13 06:37:54;;;;;;;37.60;24.92;;;7.00;99.90;;;;;;4974814;28;20358;-74
2021/03/13 06:40:35;;;;;;;41.03;25.23;;;7.30;99.90;;;;;;4974543;28;20082;-78
2021/03/13 06:43:16;;;;;;;35.75;23.95;;;7.50;99.90;;;;;;4973223;28;20468;-77
2021/03/13 06:46:06;;;;;;;38.03;24.42;;;7.50;99.90;;;;;;4974374;28;20101;-75
2021/03/13 06:48:42;;;;;;;33.50;21.80;;;7.50;99.90;;;;;;4975154;28;20027;-76
2021/03/13 06:51:38;;;;;;;35.97;23.20;;;7.70;99.90;;;;;;4974662;28;20384;-81
2021/03/13 06:54:13;;;;;;;36.85;23.77;;;7.70;99.90;;;;;;4974628;28;20035;-76
2021/03/13 06:56:57;;;;;;;45.53;25.48;;;7.80;99.90;;;;;;4973892;28;20086;-81
2021/03/13 06:59:38;;;;;;;37.50;25.20;;;7.80;99.90;;;;;;4975887;28;20117;-79
2021/03/13 07:02:11;;;;;;;38.67;24.83;;;7.90;99.90;;;;;;4974325;28;20136;-76
2021/03/13 07:04:39;;;;;;;40.33;24.40;;;7.80;99.90;;;;;;4975005;28;20042;-81
2021/03/13 07:07:06;;;;;;;38.58;24.13;;;7.80;99.90;;;;;;4974399;28;20030;-80
2021/03/13 07:09:52;;;;;;;39.20;24.40;;;7.80;99.90;;;;;;4974541;28;20373;-79
2021/03/13 07:12:34;;;;;;;31.95;22.27;;;7.70;99.90;;;;;;4974129;28;20046;-77
2021/03/13 07:15:17;;;;;;;34.22;22.77;;;7.70;99.90;;;;;;4973938;28;20042;-82
2021/03/13 07:17:49;;;;;;;32.95;24.00;;;7.70;99.90;;;;;;4972580;28;20019;-78
2021/03/13 07:20:16;;;;;;;39.60;23.98;;;7.60;99.90;;;;;;4972893;28;20412;-81
2021/03/13 07:22:42;;;;;;;38.78;25.27;;;7.90;99.90;;;;;;4974642;28;20464;-82
2021/03/13 07:25:10;;;;;;;39.45;25.25;;;8.10;99.90;;;;;;4973963;28;20023;-83
2021/03/13 07:27:40;;;;;;;40.00;23.83;;;8.30;99.90;;;;;;4974080;28;20030;-81
2021/03/13 07:30:19;;;;;;;46.08;25.17;;;8.40;99.90;;;;;;4974831;28;20027;-79
2021/03/13 07:32:52;;;;;;;35.38;23.15;;;8.40;99.90;;;;;;4973905;28;20035;-79
2021/03/13 07:35:21;;;;;;;37.58;24.20;;;8.20;99.90;;;;;;4969444;28;20101;-79
2021/03/13 07:37:53;;;;;;;40.93;25.43;;;8.60;99.90;;;;;;4954262;28;20027;-80
2021/03/13 07:40:20;;;;;;;39.30;25.08;;;8.80;99.90;;;;;;4953279;28;20042;-78
2021/03/13 07:42:47;;;;;;;37.10;24.63;;;9.10;99.90;;;;;;4969169;28;20496;-76
2021/03/13 07:45:14;;;;;;;39.50;25.38;;;9.00;99.90;;;;;;4951786;29;20489;-79
2021/03/13 07:47:41;;;;;;;35.67;24.70;;;9.20;99.90;;;;;;4953885;29;20813;-76
2021/03/13 07:50:12;;;;;;;48.35;25.58;;;9.40;99.90;;;;;;4938892;29;20103;-78
2021/03/13 07:52:40;;;;;;;43.75;26.58;;;9.50;99.90;;;;;;4917542;29;20027;-76
2021/03/13 07:55:13;;;;;;;40.28;24.05;;;9.40;99.90;;;;;;4933453;29;20087;-74
2021/03/13 07:57:42;;;;;;;60.25;34.88;;;9.60;99.90;;;;;;4932486;29;20055;-75
2021/03/13 08:00:09;;;;;;;91.05;50.30;;;10.40;99.90;;;;;;4934739;29;20160;-75
2021/03/13 08:02:36;;;;;;;56.25;30.88;;;10.80;99.90;;;;;;4934331;29;20409;-76
2021/03/13 08:05:09;;;;;;;40.03;24.05;;;10.50;99.90;;;;;;4933692;29;20024;-76
2021/03/13 08:08:02;;;;;;;56.28;35.40;;;10.60;99.90;;;;;;4934150;29;20039;-76
2021/03/13 08:10:49;;;;;;;34.88;22.05;;;10.80;99.90;;;;;;4917360;29;20490;-76
2021/03/13 08:13:27;;;;;;;27.95;18.77;;;10.90;98.60;;;;;;4941695;29;20531;-77
2021/03/13 08:16:42;;;;;;;28.92;17.23;;;10.60;98.60;;;;;;4933963;29;20381;-77
2021/03/13 08:19:30;;;;;;;28.63;17.85;;;10.30;99.20;;;;;;4915276;29;20074;-77
2021/03/13 08:22:16;;;;;;;28.42;17.02;;;10.50;99.40;;;;;;4934399;29;20114;-74
2021/03/13 08:25:22;;;;;;;21.05;15.60;;;10.70;99.10;;;;;;4942780;29;20377;-76
2021/03/13 08:27:48;;;;;;;22.60;15.43;;;10.80;98.60;;;;;;4957601;28;20023;-76
2021/03/13 08:30:19;;;;;;;21.42;13.70;;;10.80;98.50;;;;;;4940763;29;20034;-78
2021/03/13 08:33:00;;;;;;;24.23;16.38;;;11.40;97.30;;;;;;4939165;29;20031;-78
2021/03/13 08:35:48;;;;;;;;;;;11.50;96.50;;;;;;4944309;29;20110;-76
2021/03/13 08:38:19;;;;;;;21.08;14.18;;;11.60;95.70;;;;;;4951889;29;19919;-76
2021/03/13 08:40:50;;;;;;;41.20;25.15;;;11.60;95.80;;;;;;4943948;29;20027;-80
2021/03/13 08:43:36;;;;;;;45.20;27.88;;;12.50;95.80;;;;;;4930817;29;20091;-77
2021/03/13 08:46:03;;;;;;;48.90;28.27;;;13.00;93.00;;;;;;4961121;28;20047;-78
2021/03/13 08:48:58;;;;;;;34.95;19.98;;;12.90;91.30;;;;;;4970394;28;20038;-79
2021/03/13 08:51:24;;;;;;;22.95;15.25;;;12.40;92.80;;;;;;4970107;28;20173;-77
2021/03/13 08:53:50;;;;;;;21.80;14.88;;;12.10;92.20;;;;;;4971391;28;20034;-79
2021/03/13 08:56:36;;;;;;;20.08;14.20;;;11.90;92.60;;;;;;4968292;28;20011;-78
2021/03/13 08:59:28;;;;;;;99.95;58.70;;;11.60;92.90;;;;;;4950664;28;20027;-76
2021/03/13 09:02:02;;;;;;;56.45;35.67;;;12.30;92.60;;;;;;4934427;28;20043;-79
2021/03/13 09:04:47;;;;;;;70.38;43.00;;;12.60;92.90;;;;;;4969472;28;20019;-81
2021/03/13 09:07:14;;;;;;;135.85;77.90;;;12.60;91.20;;;;;;4970725;28;20496;-80
2021/03/13 09:09:41;;;;;;;35.75;23.60;;;12.20;91.20;;;;;;4970965;28;20472;-80
2021/03/13 09:12:10;;;;;;;24.23;16.15;;;12.00;91.30;;;;;;4961003;28;20038;-85
2021/03/13 09:14:38;;;;;;;20.95;13.25;;;11.90;91.50;;;;;;4953358;28;20782;-81
2021/03/13 09:17:10;;;;;;;19.52;13.13;;;11.80;91.60;;;;;;4952522;28;20070;-76
2021/03/13 09:19:36;;;;;;;21.90;14.52;;;11.60;92.30;;;;;;4951279;29;20027;-79
2021/03/13 09:22:15;;;;;;;21.48;14.80;;;11.60;92.40;;;;;;4951590;29;20126;-79
2021/03/13 09:24:42;;;;;;;20.08;15.30;;;11.90;92.50;;;;;;4952262;29;20059;-79
2021/03/13 09:27:09;;;;;;;25.88;14.70;;;12.10;92.20;;;;;;4952682;28;20413;-80
2021/03/13 09:29:42;;;;;;;19.33;13.65;;;12.00;92.00;;;;;;4955063;28;20041;-79
2021/03/13 09:32:13;;;;;;;21.30;14.02;;;11.90;92.20;;;;;;4955424;29;20031;-77
2021/03/13 09:34:40;;;;;;;19.45;13.35;;;12.00;91.80;;;;;;4946541;28;20031;-78
2021/03/13 09:37:34;;;;;;;17.48;12.63;;;12.10;91.20;;;;;;4949996;28;20121;-75
2021/03/13 09:40:20;;;;;;;18.40;12.10;;;12.20;90.80;;;;;;4941336;28;20042;-77
2021/03/13 09:42:47;;;;;;;22.88;13.25;;;11.80;90.30;;;;;;4947394;28;20039;-76
2021/03/13 09:45:15;;;;;;;21.67;14.10;;;11.70;91.40;;;;;;4951832;28;20039;-77
2021/03/13 09:47:48;;;;;;;21.83;14.95;;;11.90;91.80;;;;;;4958475;28;20056;-76
2021/03/13 09:50:35;;;;;;;19.23;13.05;;;12.20;91.60;;;;;;4954046;28;20027;-78
2021/03/13 09:53:06;;;;;;;22.70;14.52;;;12.40;91.60;;;;;;4952529;28;20061;-77
2021/03/13 09:55:33;;;;;;;24.17;14.95;;;12.90;91.30;;;;;;4949342;28;20028;-77
2021/03/13 09:58:01;;;;;;;26.35;14.00;;;13.20;91.30;;;;;;4950441;28;20038;-79
2021/03/13 10:00:32;;;;;;;24.83;18.08;;;13.10;89.90;;;;;;4932818;28;20031;-78
2021/03/13 10:03:02;;;;;;;47.00;30.83;;;13.90;91.20;;;;;;4952089;29;20825;-79
2021/03/13 10:05:32;;;;;;;45.63;29.65;;;13.90;88.90;;;;;;4952334;28;20038;-79
2021/03/13 10:08:05;;;;;;;33.38;23.05;;;14.40;85.40;;;;;;4961777;28;20043;-78
2021/03/13 10:10:31;;;;;;;29.20;15.30;;;14.30;84.30;;;;;;4966578;28;20063;-77
2021/03/13 10:13:02;;;;;;;20.58;14.15;;;13.90;82.10;;;;;;4970944;28;20098;-78
2021/03/13 10:15:34;;;;;;;26.65;15.60;;;13.50;82.70;;;;;;4971170;28;20039;-75
2021/03/13 10:18:07;;;;;;;21.42;13.00;;;13.60;84.10;;;;;;4968136;28;20057;-76
2021/03/13 10:20:32;;;;;;;18.40;12.57;;;13.60;83.60;;;;;;4937680;28;20099;-75
2021/03/13 10:23:10;;;;;;;18.35;12.13;;;13.40;84.60;;;;;;4953121;29;20043;-76
2021/03/13 10:25:37;;;;;;;18.67;12.20;;;13.40;84.30;;;;;;4950803;28;20554;-77
2021/03/13 10:28:08;;;;;;;17.98;12.27;;;13.30;84.90;;;;;;4953575;29;20038;-77
2021/03/13 10:30:35;;;;;;;27.02;16.17;;;14.00;85.30;;;;;;4954115;29;20059;-81
2021/03/13 10:33:02;;;;;;;20.25;14.40;;;14.50;82.70;;;;;;4954845;29;20028;-78
2021/03/13 10:35:30;;;;;;;19.45;13.88;;;14.30;81.20;;;;;;4957515;28;20085;-79
2021/03/13 10:37:58;;;;;;;18.17;12.32;;;13.90;82.20;;;;;;4954316;28;20068;-79
2021/03/13 10:40:47;;;;;;;20.30;12.27;;;13.70;83.10;;;;;;4954403;29;20023;-80
2021/03/13 10:43:20;;;;;;;21.42;13.30;;;13.80;83.70;;;;;;4954309;28;20023;-80
2021/03/13 10:45:55;;;;;;;21.58;13.85;;;14.10;83.80;;;;;;4952565;28;20576;-76
2021/03/13 10:48:22;;;;;;;22.55;14.38;;;14.30;83.10;;;;;;4953154;29;20043;-78
2021/03/13 10:50:48;;;;;;;19.65;13.30;;;14.30;83.00;;;;;;4952634;29;20035;-80
2021/03/13 10:53:35;;;;;;;17.48;13.32;;;14.40;82.10;;;;;;4954750;29;20090;-80
2021/03/13 10:56:03;;;;;;;18.35;12.65;;;14.90;80.10;;;;;;4953890;29;20107;-79
2021/03/13 10:58:34;;;;;;;16.05;12.50;;;15.30;78.40;;;;;;4957244;28;20046;-78
2021/03/13 11:01:02;;;;;;;16.48;12.27;;;15.60;75.90;;;;;;4973101;28;20030;-77
2021/03/13 11:03:28;;;;;;;21.98;14.35;;;15.90;74.40;;;;;;4971303;28;20487;-78
2021/03/13 11:05:54;;;;;;;20.00;13.82;;;16.30;73.30;;;;;;4971920;28;20549;-81
2021/03/13 11:08:28;;;;;;;21.05;13.85;;;16.60;71.30;;;;;;4972924;28;20493;-81
2021/03/13 11:10:55;;;;;;;20.83;15.02;;;16.40;70.20;;;;;;4956413;28;20504;-81
2021/03/13 11:13:23;;;;;;;74.32;49.10;;;16.30;74.00;;;;;;4974520;28;20224;-80
2021/03/13 11:15:49;;;;;;;42.58;32.22;;;16.80;72.20;;;;;;4974132;28;20030;-80
2021/03/13 11:18:16;;;;;;;39.70;27.52;;;17.20;70.90;;;;;;4974126;28;20038;-81
2021/03/13 11:20:42;;;;;;;28.08;19.33;;;17.00;70.50;;;;;;4969147;28;20091;-78
2021/03/13 11:23:08;;;;;;;19.30;11.48;;;17.10;69.80;;;;;;4972716;28;20089;-77
2021/03/13 11:25:35;;;;;;;21.85;14.57;;;17.00;66.10;;;;;;4970768;28;20460;-80
2021/03/13 11:28:01;;;;;;;66.28;44.38;;;16.30;67.90;;;;;;4951020;28;20033;-78
2021/03/13 11:30:27;;;;;;;25.30;18.63;;;15.70;69.90;;;;;;4970609;28;20035;-78
2021/03/13 11:32:53;;;;;;;18.58;11.60;;;15.60;70.00;;;;;;4957925;28;20015;-75
2021/03/13 11:35:19;;;;;;;12.65;9.10;;;15.10;71.60;;;;;;4956413;28;20475;-77
2021/03/13 11:37:49;;;;;;;14.13;9.20;;;14.80;73.40;;;;;;4959173;28;20024;-77
2021/03/13 11:40:17;;;;;;;14.25;9.57;;;14.70;74.00;;;;;;4967212;28;20373;-76
2021/03/13 11:42:44;;;;;;;13.85;8.95;;;14.70;75.70;;;;;;4954709;28;20122;-78
2021/03/13 11:45:13;;;;;;;15.43;9.70;;;14.80;76.10;;;;;;4965870;28;20061;-77
2021/03/13 11:47:39;;;;;;;12.35;9.18;;;15.10;74.60;;;;;;4972853;28;20069;-76
2021/03/13 11:50:10;;;;;;;13.98;9.25;;;14.70;74.50;;;;;;4972165;28;20362;-76
2021/03/13 11:52:37;;;;;;;13.48;9.20;;;14.50;75.00;;;;;;4972680;28;20027;-80
2021/03/13 11:55:05;;;;;;;16.85;9.60;;;14.60;76.30;;;;;;4972136;28;20110;-78
2021/03/13 11:57:31;;;;;;;12.77;9.07;;;14.40;76.90;;;;;;4971733;28;20030;-77
2021/03/13 11:59:57;;;;;;;13.52;9.68;;;14.40;77.40;;;;;;4973807;28;20038;-82
2021/03/13 12:02:23;;;;;;;13.93;10.25;;;14.20;77.00;;;;;;4973333;28;20034;-77
2021/03/13 12:04:48;;;;;;;12.93;9.52;;;14.00;78.60;;;;;;4973182;28;20596;-80
2021/03/13 12:07:14;;;;;;;13.80;9.07;;;14.00;80.00;;;;;;4971827;28;20437;-76
2021/03/13 12:09:40;;;;;;;14.18;9.30;;;13.90;79.90;;;;;;4973199;28;20101;-79
2021/03/13 12:12:07;;;;;;;13.05;8.73;;;13.90;80.70;;;;;;4972316;28;20024;-75
2021/03/13 12:14:37;;;;;;;14.18;9.43;;;13.90;79.90;;;;;;4972631;28;20102;-78
2021/03/13 12:17:04;;;;;;;16.00;9.43;;;13.80;80.60;;;;;;4972893;28;20023;-78
2021/03/13 12:19:30;;;;;;;15.00;8.82;;;13.80;81.10;;;;;;4955566;28;20031;-78
2021/03/13 12:21:57;;;;;;;17.55;9.45;;;13.90;81.50;;;;;;4955345;28;20043;-79
2021/03/13 12:24:23;;;;;;;13.05;9.20;;;14.00;80.80;;;;;;4972135;28;20396;-77
2021/03/13 12:26:49;;;;;;;11.98;8.70;;;14.20;80.60;;;;;;4972608;28;20031;-76
2021/03/13 12:29:15;;;;;;;12.80;8.68;;;14.40;79.40;;;;;;4972916;28;20357;-80
2021/03/13 12:31:41;;;;;;;13.85;9.50;;;14.60;78.70;;;;;;4972815;28;20113;-77
2021/03/13 12:34:07;;;;;;;12.60;9.32;;;14.60;79.10;;;;;;4973005;28;20429;-77
2021/03/13 12:36:33;;;;;;;14.82;9.85;;;14.80;78.90;;;;;;4958918;28;20039;-78
2021/03/13 12:38:59;;;;;;;13.52;9.50;;;14.50;78.30;;;;;;4966649;28;20162;-78
2021/03/13 12:41:25;;;;;;;12.43;9.52;;;14.60;78.00;;;;;;4953457;28;20069;-78
2021/03/13 12:43:51;;;;;;;15.57;9.93;;;14.60;77.40;;;;;;4969270;28;20019;-79
2021/03/13 12:46:18;;;;;;;15.13;9.38;;;14.60;78.20;;;;;;4953149;28;20046;-77
2021/03/13 12:48:46;;;;;;;14.07;9.88;;;14.70;78.80;;;;;;4953221;28;20026;-75